createdAt,value
2023-01-31T00:01:58.912Z,96981.41
2023-01-31T00:04:27.044Z,96980.40
2023-01-31T00:06:55.045Z,96980.92
2023-01-31T00:09:23.035Z,96978.30
2023-01-31T00:11:51.192Z,96978.61
2023-01-31T00:14:20.591Z,96980.86
2023-01-31T00:16:48.539Z,96982.23
2023-01-31T00:19:16.746Z,96982.55
2023-01-31T00:21:47.541Z,96983.15
2023-01-31T00:24:16.216Z,96985.91
2023-01-31T00:26:44.446Z,96984.75
2023-01-31T00:29:12.561Z,96982.91
2023-01-31T00:31:40.788Z,96982.09
2023-01-31T00:34:09.049Z,96981.83
2023-01-31T00:36:38.082Z,96983.11
2023-01-31T00:39:10.706Z,96982.84
2023-01-31T00:41:39.419Z,96983.42
2023-01-31T00:44:08.028Z,96979.39
2023-01-31T00:46:36.738Z,96976.05
2023-01-31T00:49:05.200Z,96974.92
2023-01-31T00:51:33.585Z,96970.52
2023-01-31T00:54:01.592Z,96971.59
2023-01-31T00:56:29.472Z,96970.73
2023-01-31T00:58:57.674Z,96968.89
2023-01-31T01:01:28.442Z,96966.34
2023-01-31T01:04:00.058Z,96967.86
2023-01-31T01:06:28.850Z,96967.66
2023-01-31T01:08:59.965Z,96969.27
2023-01-31T01:11:32.048Z,96971.96
2023-01-31T01:14:01.126Z,96971.91
2023-01-31T01:16:36.625Z,96972.22
2023-01-31T01:19:07.315Z,96970.98
2023-01-31T01:21:40.998Z,96968.72
2023-01-31T01:24:13.903Z,96969.71
2023-01-31T01:26:42.741Z,96970.34
2023-01-31T01:29:11.145Z,96964.79
2023-01-31T01:31:40.683Z,96966.39
2023-01-31T01:34:13.679Z,96962.79
2023-01-31T01:36:42.439Z,96973.13
2023-01-31T01:39:12.403Z,96974.52
2023-01-31T01:41:44.628Z,96976.63
2023-01-31T01:44:46.389Z,96977.30
2023-01-31T01:47:26.871Z,96983.08
2023-01-31T01:50:05.054Z,96983.51
2023-01-31T01:52:36.599Z,96988.40
2023-01-31T01:55:14.972Z,96994.74
2023-01-31T01:57:47.213Z,96999.52
2023-01-31T02:00:25.635Z,96999.35
2023-01-31T02:02:58.499Z,97002.55
2023-01-31T02:05:31.389Z,97001.11
2023-01-31T02:08:01.341Z,97001.61
2023-01-31T02:10:54.749Z,97004.47
2023-01-31T02:13:25.218Z,97008.41
2023-01-31T02:15:53.188Z,97011.88
2023-01-31T02:18:24.511Z,97015.70
2023-01-31T02:21:20.914Z,97011.81
2023-01-31T02:24:10.940Z,97011.37
2023-01-31T02:27:16.829Z,97010.01
2023-01-31T02:30:07.298Z,97017.06
2023-01-31T02:33:03.365Z,97019.80
2023-01-31T02:35:41.261Z,97021.23
2023-01-31T02:38:28.261Z,97025.45
2023-01-31T02:41:22.754Z,97028.42
2023-01-31T02:44:16.308Z,97028.64
2023-01-31T02:46:51.295Z,97026.10
2023-01-31T02:49:36.668Z,97031.37
2023-01-31T02:52:22.797Z,97033.39
2023-01-31T02:55:24.278Z,97029.29
2023-01-31T02:57:55.109Z,97031.69
2023-01-31T03:00:25.525Z,97028.24
2023-01-31T03:02:53.611Z,97023.11
2023-01-31T03:05:23.207Z,97015.89
2023-01-31T03:07:59.968Z,97013.97
2023-01-31T03:10:54.466Z,97011.35
2023-01-31T03:13:35.692Z,97004.98
2023-01-31T03:16:46.375Z,97002.73
2023-01-31T03:19:34.560Z,97019.02
2023-01-31T03:22:17.250Z,97030.59
2023-01-31T03:24:48.305Z,97035.92
2023-01-31T03:27:17.684Z,97034.45
2023-01-31T03:29:47.796Z,97035.39
2023-01-31T03:32:25.194Z,97035.92
2023-01-31T03:34:54.751Z,97030.81
2023-01-31T03:37:54.974Z,97031.45
2023-01-31T03:40:37.137Z,97029.43
2023-01-31T03:43:15.458Z,97029.31
2023-01-31T03:45:56.104Z,97031.23
2023-01-31T03:48:28.895Z,97030.26
2023-01-31T03:51:00.955Z,97025.40
2023-01-31T03:53:37.591Z,97027.44
2023-01-31T03:56:28.384Z,97036.63
2023-01-31T03:59:11.692Z,97040.68
2023-01-31T04:01:45.123Z,97044.42
2023-01-31T04:04:21.029Z,97047.30
2023-01-31T04:06:49.498Z,97045.34
2023-01-31T04:09:18.052Z,97042.66
2023-01-31T04:11:49.780Z,97038.91
2023-01-31T04:14:19.030Z,97036.12
2023-01-31T04:16:47.168Z,97034.36
2023-01-31T04:19:15.449Z,97037.86
2023-01-31T04:21:43.468Z,97039.66
2023-01-31T04:24:12.521Z,97044.40
2023-01-31T04:26:40.511Z,97044.80
2023-01-31T04:29:08.506Z,97039.49
2023-01-31T04:31:36.765Z,97042.12
2023-01-31T04:34:04.926Z,97043.50
2023-01-31T04:36:33.684Z,97048.30
2023-01-31T04:39:01.873Z,97046.02
2023-01-31T04:41:30.227Z,97048.92
2023-01-31T04:43:58.422Z,97049.88
2023-01-31T04:46:26.656Z,97053.25
2023-01-31T04:48:54.789Z,97045.84
2023-01-31T04:51:22.851Z,97052.55
2023-01-31T04:53:50.830Z,97049.97
2023-01-31T04:56:18.930Z,97055.50
2023-01-31T04:58:48.390Z,97057.09
2023-01-31T05:01:16.564Z,97057.45
2023-01-31T05:03:44.622Z,97059.30
2023-01-31T05:06:12.716Z,97059.63
2023-01-31T05:08:40.944Z,97054.31
2023-01-31T05:11:09.248Z,97053.95
2023-01-31T05:13:38.461Z,97052.84
2023-01-31T05:16:11.315Z,97056.35
2023-01-31T05:18:40.045Z,97059.33
2023-01-31T05:21:08.625Z,97058.21
2023-01-31T05:23:37.117Z,97053.16
2023-01-31T05:26:05.540Z,97047.98
2023-01-31T05:28:33.723Z,97041.02
2023-01-31T05:31:05.165Z,97043.87
2023-01-31T05:33:34.028Z,97048.63
2023-01-31T05:36:03.778Z,97054.45
2023-01-31T05:38:31.977Z,97059.46
2023-01-31T05:41:00.375Z,97068.27
2023-01-31T05:43:28.706Z,97070.79
2023-01-31T05:45:56.907Z,97065.21
2023-01-31T05:48:24.943Z,97067.68
2023-01-31T05:50:53.046Z,97070.63
2023-01-31T05:53:22.821Z,97076.92
2023-01-31T05:55:50.950Z,97085.32
2023-01-31T05:58:19.391Z,97082.38
2023-01-31T06:00:47.632Z,97082.36
2023-01-31T06:03:15.720Z,97088.43
2023-01-31T06:05:43.900Z,97094.48
2023-01-31T06:08:13.032Z,97098.64
2023-01-31T06:10:41.567Z,97105.88
2023-01-31T06:13:09.980Z,97110.05
2023-01-31T06:15:42.562Z,97112.85
2023-01-31T06:18:11.246Z,97115.51
2023-01-31T06:20:39.782Z,97117.45
2023-01-31T06:23:08.300Z,97124.95
2023-01-31T06:25:36.508Z,97127.78
2023-01-31T06:28:04.713Z,97122.20
2023-01-31T06:30:33.362Z,97119.36
2023-01-31T06:33:02.554Z,97112.02
2023-01-31T06:35:31.721Z,97105.52
2023-01-31T06:37:59.953Z,97105.14
2023-01-31T06:40:28.412Z,97106.02
2023-01-31T06:42:58.034Z,97106.38
2023-01-31T06:45:26.208Z,97109.13
2023-01-31T06:47:54.794Z,97113.40
2023-01-31T06:50:23.498Z,97116.52
2023-01-31T06:52:51.743Z,97122.08
2023-01-31T06:55:20.189Z,97123.66
2023-01-31T06:57:49.916Z,97129.16
2023-01-31T07:00:19.341Z,97137.26
2023-01-31T07:02:48.280Z,97136.42
2023-01-31T07:05:17.094Z,97138.50
2023-01-31T07:07:45.667Z,97136.74
2023-01-31T07:10:13.983Z,97141.91
2023-01-31T07:12:42.606Z,97146.34
2023-01-31T07:15:11.396Z,97145.18
2023-01-31T07:17:39.670Z,97148.02
2023-01-31T07:20:08.899Z,97149.56
2023-01-31T07:22:37.102Z,97155.06
2023-01-31T07:25:06.559Z,97162.61
2023-01-31T07:27:35.027Z,97168.18
2023-01-31T07:30:03.329Z,97180.58
2023-01-31T07:32:32.318Z,97185.18
2023-01-31T07:35:00.722Z,97180.48
2023-01-31T07:37:29.941Z,97191.03
2023-01-31T07:39:58.366Z,97192.81
2023-01-31T07:42:28.869Z,97196.25
2023-01-31T07:44:57.039Z,97200.01
2023-01-31T07:47:25.091Z,97200.17
2023-01-31T07:49:53.607Z,97202.27
2023-01-31T07:52:22.393Z,97205.48
2023-01-31T07:54:50.763Z,97210.59
2023-01-31T07:57:19.254Z,97211.88
2023-01-31T07:59:47.593Z,97215.33
2023-01-31T08:02:36.496Z,97221.54
2023-01-31T08:05:05.890Z,97222.39
2023-01-31T08:07:34.273Z,97227.00
2023-01-31T08:10:02.591Z,97231.04
2023-01-31T08:12:31.716Z,97234.14
2023-01-31T08:15:00.177Z,97232.11
2023-01-31T08:17:28.724Z,97235.14
2023-01-31T08:19:57.373Z,97240.72
2023-01-31T08:22:25.754Z,97241.77
2023-01-31T08:24:53.960Z,97241.98
2023-01-31T08:27:22.337Z,97246.50
2023-01-31T08:29:50.698Z,97245.98
2023-01-31T08:32:19.037Z,97246.52
2023-01-31T08:34:47.516Z,97247.21
2023-01-31T08:37:17.404Z,97250.87
2023-01-31T08:39:48.840Z,97250.02
2023-01-31T08:42:17.162Z,97250.75
2023-01-31T08:44:45.416Z,97247.21
2023-01-31T08:47:13.529Z,97246.97
2023-01-31T08:49:41.934Z,97245.16
2023-01-31T08:52:10.324Z,97247.15
2023-01-31T08:54:38.907Z,97246.50
2023-01-31T08:57:07.281Z,97251.05
2023-01-31T08:59:35.597Z,97256.95
2023-01-31T09:02:04.029Z,97262.14
2023-01-31T09:04:32.800Z,97266.11
2023-01-31T09:07:01.074Z,97275.76
2023-01-31T09:09:30.651Z,97281.28
2023-01-31T09:11:58.931Z,97286.80
2023-01-31T09:14:27.327Z,97289.77
2023-01-31T09:16:55.915Z,97292.69
2023-01-31T09:19:25.018Z,97293.36
2023-01-31T09:21:53.284Z,97293.55
2023-01-31T09:24:21.546Z,97295.81
2023-01-31T09:26:49.983Z,97291.54
2023-01-31T09:29:18.138Z,97288.60
2023-01-31T09:31:46.474Z,97286.39
2023-01-31T09:34:15.364Z,97287.45
2023-01-31T09:36:44.784Z,97288.83
2023-01-31T09:39:13.043Z,97286.62
2023-01-31T09:41:55.562Z,97283.02
2023-01-31T09:44:29.881Z,97285.59
2023-01-31T09:47:10.600Z,97288.70
2023-01-31T09:49:53.047Z,97284.77
2023-01-31T09:52:24.842Z,97275.94
2023-01-31T09:54:53.273Z,97270.52
2023-01-31T09:58:04.682Z,97280.02
2023-01-31T10:00:44.742Z,97280.42
2023-01-31T10:03:34.946Z,97275.60
2023-01-31T10:06:19.155Z,97275.61
2023-01-31T10:08:51.563Z,97280.59
2023-01-31T10:11:42.390Z,97282.29
2023-01-31T10:14:36.634Z,97278.48
2023-01-31T10:17:16.973Z,97271.27
2023-01-31T10:19:59.198Z,97276.48
2023-01-31T10:22:33.643Z,97277.70
2023-01-31T10:25:32.260Z,97281.29
2023-01-31T10:28:18.156Z,97279.89
2023-01-31T10:31:17.559Z,97275.72
2023-01-31T10:33:52.105Z,97274.34
2023-01-31T10:36:26.453Z,97268.65
2023-01-31T10:39:07.885Z,97264.52
2023-01-31T10:41:54.897Z,97262.30
2023-01-31T10:44:47.856Z,97259.38
2023-01-31T10:47:19.314Z,97261.80
2023-01-31T10:49:50.812Z,97263.20
2023-01-31T10:52:44.234Z,97258.37
2023-01-31T10:55:55.298Z,97260.79
2023-01-31T10:58:24.293Z,97264.59
2023-01-31T11:00:53.217Z,97265.11
2023-01-31T11:03:22.430Z,97271.33
2023-01-31T11:05:53.887Z,97269.77
2023-01-31T11:08:45.694Z,97271.14
2023-01-31T11:11:18.448Z,97265.26
2023-01-31T11:14:03.833Z,97263.00
2023-01-31T11:16:35.719Z,97263.70
2023-01-31T11:19:33.264Z,97263.35
2023-01-31T11:22:03.207Z,97256.45
2023-01-31T11:24:34.884Z,97253.00
2023-01-31T11:27:11.751Z,97252.48
2023-01-31T11:29:46.748Z,97246.63
2023-01-31T11:32:23.004Z,97244.71
2023-01-31T11:35:22.469Z,97245.74
2023-01-31T11:38:10.003Z,97246.44
2023-01-31T11:40:41.356Z,97242.80
2023-01-31T11:43:21.890Z,97245.58
2023-01-31T11:46:02.299Z,97246.79
2023-01-31T11:48:41.515Z,97249.04
2023-01-31T11:51:12.984Z,97250.93
2023-01-31T11:53:47.247Z,97251.09
2023-01-31T11:56:22.297Z,97257.83
2023-01-31T11:58:55.582Z,97254.73
2023-01-31T12:01:27.651Z,97253.17
2023-01-31T12:04:03.403Z,97262.00
2023-01-31T12:06:34.918Z,97258.71
2023-01-31T12:09:25.247Z,97263.03
2023-01-31T12:11:55.878Z,97266.14
2023-01-31T12:14:35.908Z,97273.58
2023-01-31T12:17:04.860Z,97276.67
2023-01-31T12:20:25.421Z,97275.98
2023-01-31T12:23:13.417Z,97288.56
2023-01-31T12:26:04.769Z,97295.95
2023-01-31T12:28:59.602Z,97296.10
2023-01-31T12:31:43.507Z,97293.16
2023-01-31T12:34:39.957Z,97298.33
2023-01-31T12:37:43.809Z,97304.02
2023-01-31T12:40:34.701Z,97308.15
2023-01-31T12:43:09.159Z,97309.12
2023-01-31T12:45:50.200Z,97307.23
2023-01-31T12:48:26.365Z,97312.24
2023-01-31T12:51:01.059Z,97307.27
2023-01-31T12:53:50.216Z,97314.16
2023-01-31T12:56:46.744Z,97313.66
2023-01-31T12:59:21.138Z,97307.09
2023-01-31T13:01:55.187Z,97310.75
2023-01-31T13:04:31.893Z,97317.66
2023-01-31T13:07:06.318Z,97313.35
2023-01-31T13:09:36.830Z,97314.73
2023-01-31T13:12:20.037Z,97323.48
2023-01-31T13:14:52.709Z,97313.80
2023-01-31T13:17:26.691Z,97319.12
2023-01-31T13:19:59.231Z,97325.69
2023-01-31T13:22:41.255Z,97325.70
2023-01-31T13:25:31.214Z,97326.91
2023-01-31T13:28:01.819Z,97330.40
2023-01-31T13:30:39.935Z,97327.13
2023-01-31T13:33:23.712Z,97323.72
2023-01-31T13:36:07.657Z,97326.33
2023-01-31T13:38:44.862Z,97329.27
2023-01-31T13:41:29.180Z,97327.34
2023-01-31T13:43:58.858Z,97329.25
2023-01-31T13:46:56.432Z,97327.73
2023-01-31T13:49:39.035Z,97327.75
2023-01-31T13:52:42.113Z,97326.90
2023-01-31T13:55:19.386Z,97325.73
2023-01-31T13:57:57.543Z,97327.79
2023-01-31T14:00:35.077Z,97331.95
2023-01-31T14:03:11.303Z,97332.97
2023-01-31T14:05:46.050Z,97328.98
2023-01-31T14:08:32.657Z,97336.74
2023-01-31T14:11:03.602Z,97335.38
2023-01-31T14:13:32.238Z,97333.47
2023-01-31T14:16:02.604Z,97332.94
2023-01-31T14:18:41.779Z,97337.58
2023-01-31T14:21:32.580Z,97345.52
2023-01-31T14:24:02.813Z,97341.30
2023-01-31T14:26:44.237Z,97346.33
2023-01-31T14:29:19.834Z,97351.84
2023-01-31T14:31:50.477Z,97356.98
2023-01-31T14:34:30.776Z,97358.21
2023-01-31T14:37:21.070Z,97363.22
2023-01-31T14:40:03.424Z,97366.66
2023-01-31T14:42:58.028Z,97380.27
2023-01-31T14:45:40.867Z,97374.71
2023-01-31T14:48:55.222Z,97375.43
2023-01-31T14:51:53.296Z,97375.45
2023-01-31T14:54:57.047Z,97373.69
2023-01-31T14:57:33.079Z,97382.88
2023-01-31T15:00:02.949Z,97380.98
2023-01-31T15:02:31.533Z,97385.97
2023-01-31T15:05:14.984Z,97384.77
2023-01-31T15:08:01.175Z,97387.55
2023-01-31T15:11:06.351Z,97393.25
2023-01-31T15:13:40.363Z,97394.41
2023-01-31T15:16:29.085Z,97397.20
2023-01-31T15:19:15.188Z,97401.02
2023-01-31T15:21:50.661Z,97403.23
2023-01-31T15:24:35.607Z,97406.31
2023-01-31T15:27:11.869Z,97406.46
2023-01-31T15:29:46.644Z,97403.14
2023-01-31T15:32:26.482Z,97403.45
2023-01-31T15:35:07.541Z,97406.36
2023-01-31T15:37:38.473Z,97412.17
2023-01-31T15:40:20.309Z,97412.96
2023-01-31T15:42:49.076Z,97411.04
2023-01-31T15:45:24.434Z,97413.43
2023-01-31T15:48:12.984Z,97417.85
2023-01-31T15:50:59.594Z,97417.95
2023-01-31T15:53:31.358Z,97418.61
2023-01-31T15:56:05.404Z,97418.39
2023-01-31T15:58:36.082Z,97420.07
2023-01-31T16:01:05.391Z,97424.50
2023-01-31T16:03:39.435Z,97424.75
2023-01-31T16:06:22.063Z,97426.55
2023-01-31T16:09:01.967Z,97427.15
2023-01-31T16:11:33.830Z,97429.33
2023-01-31T16:14:05.910Z,97433.05
2023-01-31T16:16:36.186Z,97434.20
2023-01-31T16:19:05.635Z,97435.01
2023-01-31T16:21:41.701Z,97439.45
2023-01-31T16:24:17.145Z,97441.66
2023-01-31T16:26:51.300Z,97444.27
2023-01-31T16:29:22.583Z,97446.02
2023-01-31T16:31:54.280Z,97452.29
2023-01-31T16:34:36.439Z,97446.27
2023-01-31T16:37:07.397Z,97451.02
2023-01-31T16:39:47.220Z,97449.38
2023-01-31T16:42:15.526Z,97448.73
2023-01-31T16:44:46.321Z,97451.56
2023-01-31T16:47:44.885Z,97450.92
2023-01-31T16:50:41.980Z,97449.39
2023-01-31T16:53:18.695Z,97453.39
2023-01-31T16:56:06.827Z,97457.17
2023-01-31T16:58:56.304Z,97458.36
2023-01-31T17:01:34.934Z,97461.64
2023-01-31T17:04:05.228Z,97466.10
2023-01-31T17:06:34.166Z,97467.45
2023-01-31T17:09:05.500Z,97462.25
2023-01-31T17:11:42.652Z,97454.96
2023-01-31T17:14:11.587Z,97455.96
2023-01-31T17:16:40.243Z,97449.40
2023-01-31T17:19:08.462Z,97443.15
2023-01-31T17:21:41.122Z,97448.31
2023-01-31T17:24:22.699Z,97452.09
2023-01-31T17:26:53.723Z,97455.70
2023-01-31T17:29:23.651Z,97457.38
2023-01-31T17:31:52.688Z,97462.71
2023-01-31T17:34:21.064Z,97463.35
2023-01-31T17:36:49.441Z,97466.80
2023-01-31T17:39:18.146Z,97466.98
2023-01-31T17:41:47.097Z,97463.70
2023-01-31T17:44:15.863Z,97469.05
2023-01-31T17:46:44.782Z,97468.20
2023-01-31T17:49:13.354Z,97469.23
2023-01-31T17:51:41.949Z,97469.59
2023-01-31T17:54:10.946Z,97468.08
2023-01-31T17:56:39.184Z,97467.42
2023-01-31T17:59:12.330Z,97465.90
2023-01-31T18:01:43.585Z,97465.94
2023-01-31T18:04:11.928Z,97467.88
2023-01-31T18:06:40.019Z,97468.11
2023-01-31T18:09:10.965Z,97471.02
2023-01-31T18:11:43.694Z,97471.21
2023-01-31T18:14:12.178Z,97472.41
2023-01-31T18:16:40.817Z,97473.60
2023-01-31T18:19:09.066Z,97476.52
2023-01-31T18:21:41.476Z,97474.02
2023-01-31T18:24:15.263Z,97475.36
2023-01-31T18:26:44.702Z,97480.14
2023-01-31T18:29:19.569Z,97483.35
2023-01-31T18:31:47.966Z,97486.96
2023-01-31T18:34:16.675Z,97487.10
2023-01-31T18:36:45.041Z,97485.38
2023-01-31T18:39:13.406Z,97484.38
2023-01-31T18:41:42.017Z,97482.67
2023-01-31T18:44:10.555Z,97484.80
2023-01-31T18:46:38.970Z,97485.83
2023-01-31T18:49:07.226Z,97489.97
2023-01-31T18:51:35.617Z,97492.09
2023-01-31T18:54:04.388Z,97488.52
2023-01-31T18:56:32.487Z,97488.37
2023-01-31T18:59:00.609Z,97487.98
2023-01-31T19:01:28.851Z,97485.78
2023-01-31T19:03:58.505Z,97485.58
2023-01-31T19:06:29.681Z,97486.63
2023-01-31T19:08:58.815Z,97490.27
2023-01-31T19:11:29.331Z,97490.76
2023-01-31T19:13:57.771Z,97489.30
2023-01-31T19:16:29.190Z,97487.85
2023-01-31T19:18:57.528Z,97485.15
2023-01-31T19:21:28.290Z,97489.69
2023-01-31T19:24:02.391Z,97493.04
2023-01-31T19:26:32.505Z,97494.36
2023-01-31T19:29:01.468Z,97493.46
2023-01-31T19:31:32.019Z,97492.23
2023-01-31T19:34:06.367Z,97493.42
2023-01-31T19:36:37.864Z,97499.63
2023-01-31T19:39:09.575Z,97499.56
2023-01-31T19:41:38.416Z,97502.92
2023-01-31T19:44:06.773Z,97506.14
2023-01-31T19:46:36.832Z,97500.92
2023-01-31T19:49:05.553Z,97501.48
2023-01-31T19:51:34.205Z,97506.40
2023-01-31T19:54:03.088Z,97510.15
2023-01-31T19:56:32.395Z,97510.10
2023-01-31T19:59:01.032Z,97502.14
2023-01-31T20:01:29.356Z,97500.58
2023-01-31T20:03:58.316Z,97505.73
2023-01-31T20:06:29.651Z,97506.93
2023-01-31T20:09:00.678Z,97508.97
2023-01-31T20:11:30.176Z,97508.43
2023-01-31T20:13:58.551Z,97510.13
2023-01-31T20:16:26.951Z,97511.30
2023-01-31T20:18:56.334Z,97510.96
2023-01-31T20:21:24.563Z,97510.29
2023-01-31T20:23:53.013Z,97508.94
2023-01-31T20:26:24.316Z,97510.86
2023-01-31T20:28:52.636Z,97513.16
2023-01-31T20:31:20.907Z,97511.52
2023-01-31T20:33:54.864Z,97513.48
2023-01-31T20:36:23.841Z,97514.24
2023-01-31T20:38:52.496Z,97515.37
2023-01-31T20:41:22.596Z,97519.56
2023-01-31T20:43:50.782Z,97518.55
2023-01-31T20:46:19.639Z,97515.63
2023-01-31T20:48:47.901Z,97516.79
2023-01-31T20:51:15.999Z,97517.77
2023-01-31T20:53:44.115Z,97518.02
2023-01-31T20:56:12.240Z,97519.67
2023-01-31T20:58:42.109Z,97516.52
2023-01-31T21:01:11.725Z,97516.29
2023-01-31T21:03:40.060Z,97514.67
2023-01-31T21:06:08.531Z,97515.46
2023-01-31T21:08:37.231Z,97508.84
2023-01-31T21:11:08.392Z,97507.73
2023-01-31T21:13:37.426Z,97505.91
2023-01-31T21:16:08.203Z,97507.87
2023-01-31T21:18:38.544Z,97510.19
2023-01-31T21:21:09.641Z,97506.16
2023-01-31T21:23:39.864Z,97502.15
2023-01-31T21:26:10.080Z,97499.73
2023-01-31T21:28:40.037Z,97499.20
2023-01-31T21:31:12.926Z,97496.83
2023-01-31T21:33:41.409Z,97496.72
2023-01-31T21:36:11.922Z,97495.43
2023-01-31T21:38:40.924Z,97492.59
2023-01-31T21:41:29.012Z,97493.39
2023-01-31T21:43:58.005Z,97493.65
2023-01-31T21:46:26.996Z,97486.80
2023-01-31T21:48:55.722Z,97483.38
2023-01-31T21:51:25.409Z,97486.31
2023-01-31T21:53:54.081Z,97482.54
2023-01-31T21:56:28.207Z,97482.34
2023-01-31T21:58:59.483Z,97484.55
2023-01-31T22:01:32.655Z,97483.86
2023-01-31T22:04:01.152Z,97484.00
2023-01-31T22:06:35.064Z,97486.02
2023-01-31T22:09:05.760Z,97484.73
2023-01-31T22:11:35.283Z,97480.86
2023-01-31T22:14:06.448Z,97481.61
2023-01-31T22:16:36.072Z,97479.12
2023-01-31T22:19:05.045Z,97480.77
2023-01-31T22:21:36.318Z,97477.45
2023-01-31T22:24:06.479Z,97473.27
2023-01-31T22:26:37.233Z,97469.98
2023-01-31T22:29:08.660Z,97464.81
2023-01-31T22:31:37.154Z,97463.27
2023-01-31T22:34:07.253Z,97463.30
2023-01-31T22:36:35.472Z,97463.33
2023-01-31T22:39:03.650Z,97458.38
2023-01-31T22:41:32.033Z,97459.94
2023-01-31T22:44:00.000Z,97459.08
2023-01-31T22:46:29.163Z,97459.75
2023-01-31T22:48:57.235Z,97460.73
2023-01-31T22:51:28.080Z,97454.65
2023-01-31T22:53:57.728Z,97454.61
2023-01-31T22:56:29.703Z,97455.43
2023-01-31T22:59:00.179Z,97452.78
2023-01-31T23:01:35.134Z,97451.20
2023-01-31T23:04:06.840Z,97451.84
2023-01-31T23:06:35.895Z,97448.23
2023-01-31T23:09:04.501Z,97443.80
2023-01-31T23:11:33.136Z,97441.80
2023-01-31T23:14:01.564Z,97438.64
2023-01-31T23:16:48.171Z,97439.92
2023-01-31T23:19:16.695Z,97436.78
2023-01-31T23:21:45.096Z,97429.34
2023-01-31T23:24:16.920Z,97428.27
2023-01-31T23:26:45.457Z,97422.89
2023-01-31T23:29:13.988Z,97418.52
2023-01-31T23:31:42.191Z,97414.27
2023-01-31T23:34:10.264Z,97408.58
2023-01-31T23:36:38.257Z,97406.61
2023-01-31T23:39:06.473Z,97407.26
2023-01-31T23:41:34.457Z,97400.30
2023-01-31T23:44:02.424Z,97402.80
2023-01-31T23:46:30.878Z,97404.76
2023-01-31T23:48:58.995Z,97404.80
2023-01-31T23:51:28.683Z,97411.19
2023-01-31T23:53:57.262Z,97412.26
2023-01-31T23:56:26.762Z,97409.98
2023-01-31T23:58:54.949Z,97408.75
